sensor_id;sensor_type;location;lat;lon;timestamp;P1;durP1;ratioP1;P2;durP2;ratioP2
8285;SDS011;4181;43.416;24.598;2023-05-10T00:03:47;15.90;;;12.40;;
8285;SDS011;4181;43.416;24.598;2023-05-10T00:06:12;14.50;;;13.03;;
8285;SDS011;4181;43.416;24.598;2023-05-10T00:08:38;14.03;;;12.07;;
8285;SDS011;4181;43.416;24.598;2023-05-10T00:11:03;13.93;;;12.03;;
8285;SDS011;4181;43.416;24.598;2023-05-10T00:13:29;13.13;;;11.70;;
8285;SDS011;4181;43.416;24.598;2023-05-10T00:15:54;15.37;;;11.27;;
8285;SDS011;4181;43.416;24.598;2023-05-10T00:18:20;13.53;;;11.50;;
8285;SDS011;4181;43.416;24.598;2023-05-10T00:20:45;14.00;;;12.50;;
8285;SDS011;4181;43.416;24.598;2023-05-10T00:23:11;14.20;;;12.67;;
8285;SDS011;4181;43.416;24.598;2023-05-10T00:25:37;14.67;;;13.20;;
8285;SDS011;4181;43.416;24.598;2023-05-10T00:28:02;17.30;;;13.77;;
8285;SDS011;4181;43.416;24.598;2023-05-10T00:30:28;14.23;;;12.80;;
8285;SDS011;4181;43.416;24.598;2023-05-10T00:32:53;13.83;;;12.43;;
8285;SDS011;4181;43.416;24.598;2023-05-10T00:35:19;14.60;;;12.10;;
8285;SDS011;4181;43.416;24.598;2023-05-10T00:37:44;18.43;;;12.90;;
8285;SDS011;4181;43.416;24.598;2023-05-10T00:40:10;16.50;;;13.43;;
8285;SDS011;4181;43.416;24.598;2023-05-10T00:42:36;16.10;;;13.53;;
8285;SDS011;4181;43.416;24.598;2023-05-10T00:45:01;21.63;;;13.27;;
8285;SDS011;4181;43.416;24.598;2023-05-10T00:47:27;17.27;;;12.80;;
8285;SDS011;4181;43.416;24.598;2023-05-10T00:49:52;16.83;;;12.90;;
8285;SDS011;4181;43.416;24.598;2023-05-10T00:52:18;17.03;;;12.67;;
8285;SDS011;4181;43.416;24.598;2023-05-10T00:54:44;17.87;;;12.83;;
8285;SDS011;4181;43.416;24.598;2023-05-10T00:57:10;18.80;;;13.43;;
8285;SDS011;4181;43.416;24.598;2023-05-10T00:59:36;16.17;;;12.67;;
8285;SDS011;4181;43.416;24.598;2023-05-10T01:02:01;15.37;;;13.07;;
8285;SDS011;4181;43.416;24.598;2023-05-10T01:04:27;18.47;;;13.07;;
8285;SDS011;4181;43.416;24.598;2023-05-10T01:06:53;19.10;;;13.50;;
8285;SDS011;4181;43.416;24.598;2023-05-10T01:09:19;15.07;;;12.27;;
8285;SDS011;4181;43.416;24.598;2023-05-10T01:11:46;13.80;;;12.40;;
8285;SDS011;4181;43.416;24.598;2023-05-10T01:14:12;16.60;;;12.37;;
8285;SDS011;4181;43.416;24.598;2023-05-10T01:16:40;13.83;;;12.43;;
8285;SDS011;4181;43.416;24.598;2023-05-10T01:19:17;14.33;;;12.27;;
8285;SDS011;4181;43.416;24.598;2023-05-10T01:31:18;17.23;;;12.57;;
8285;SDS011;4181;43.416;24.598;2023-05-10T01:33:51;13.97;;;12.57;;
8285;SDS011;4181;43.416;24.598;2023-05-10T01:42:03;16.90;;;13.70;;
8285;SDS011;4181;43.416;24.598;2023-05-10T01:44:54;16.17;;;12.90;;
8285;SDS011;4181;43.416;24.598;2023-05-10T01:50:41;16.70;;;12.70;;
8285;SDS011;4181;43.416;24.598;2023-05-10T01:53:10;19.60;;;13.33;;
8285;SDS011;4181;43.416;24.598;2023-05-10T01:55:47;15.67;;;13.70;;
8285;SDS011;4181;43.416;24.598;2023-05-10T01:58:21;17.80;;;12.70;;
8285;SDS011;4181;43.416;24.598;2023-05-10T02:00:50;13.50;;;12.00;;
8285;SDS011;4181;43.416;24.598;2023-05-10T02:03:17;13.40;;;11.97;;
8285;SDS011;4181;43.416;24.598;2023-05-10T02:05:46;13.97;;;12.57;;
8285;SDS011;4181;43.416;24.598;2023-05-10T02:08:13;14.93;;;11.90;;
8285;SDS011;4181;43.416;24.598;2023-05-10T02:10:40;16.80;;;10.60;;
8285;SDS011;4181;43.416;24.598;2023-05-10T02:13:07;12.20;;;10.90;;
8285;SDS011;4181;43.416;24.598;2023-05-10T02:15:34;13.60;;;11.30;;
8285;SDS011;4181;43.416;24.598;2023-05-10T02:18:02;16.03;;;12.20;;
8285;SDS011;4181;43.416;24.598;2023-05-10T02:20:29;13.47;;;10.87;;
8285;SDS011;4181;43.416;24.598;2023-05-10T02:22:57;15.30;;;10.90;;
8285;SDS011;4181;43.416;24.598;2023-05-10T02:25:23;12.93;;;11.03;;
8285;SDS011;4181;43.416;24.598;2023-05-10T02:27:50;14.83;;;10.57;;
8285;SDS011;4181;43.416;24.598;2023-05-10T02:30:19;10.87;;;9.80;;
8285;SDS011;4181;43.416;24.598;2023-05-10T02:32:45;11.53;;;10.33;;
8285;SDS011;4181;43.416;24.598;2023-05-10T02:35:13;12.43;;;10.00;;
8285;SDS011;4181;43.416;24.598;2023-05-10T02:37:40;15.87;;;10.80;;
8285;SDS011;4181;43.416;24.598;2023-05-10T02:40:07;18.87;;;9.90;;
8285;SDS011;4181;43.416;24.598;2023-05-10T02:42:35;12.37;;;10.03;;
8285;SDS011;4181;43.416;24.598;2023-05-10T02:45:04;19.40;;;11.00;;
8285;SDS011;4181;43.416;24.598;2023-05-10T02:47:33;10.83;;;9.67;;
8285;SDS011;4181;43.416;24.598;2023-05-10T02:49:59;14.63;;;9.77;;
8285;SDS011;4181;43.416;24.598;2023-05-10T02:52:29;11.77;;;9.60;;
8285;SDS011;4181;43.416;24.598;2023-05-10T02:55:02;13.33;;;9.43;;
8285;SDS011;4181;43.416;24.598;2023-05-10T02:57:34;12.70;;;9.13;;
8285;SDS011;4181;43.416;24.598;2023-05-10T03:00:03;11.57;;;9.23;;
8285;SDS011;4181;43.416;24.598;2023-05-10T03:02:29;11.17;;;9.77;;
8285;SDS011;4181;43.416;24.598;2023-05-10T03:04:55;15.80;;;9.60;;
8285;SDS011;4181;43.416;24.598;2023-05-10T03:07:21;12.97;;;9.43;;
8285;SDS011;4181;43.416;24.598;2023-05-10T03:09:48;13.63;;;10.00;;
8285;SDS011;4181;43.416;24.598;2023-05-10T03:19:57;15.20;;;9.10;;
8285;SDS011;4181;43.416;24.598;2023-05-10T03:22:32;10.00;;;8.83;;
8285;SDS011;4181;43.416;24.598;2023-05-10T03:25:11;11.27;;;8.70;;
8285;SDS011;4181;43.416;24.598;2023-05-10T03:27:39;11.93;;;8.80;;
8285;SDS011;4181;43.416;24.598;2023-05-10T03:30:15;16.40;;;9.47;;
8285;SDS011;4181;43.416;24.598;2023-05-10T03:32:41;15.73;;;8.73;;
8285;SDS011;4181;43.416;24.598;2023-05-10T03:35:07;11.23;;;9.10;;
8285;SDS011;4181;43.416;24.598;2023-05-10T03:37:34;12.80;;;8.03;;
8285;SDS011;4181;43.416;24.598;2023-05-10T03:40:00;11.03;;;7.57;;
8285;SDS011;4181;43.416;24.598;2023-05-10T03:42:26;12.40;;;8.50;;
8285;SDS011;4181;43.416;24.598;2023-05-10T03:44:51;12.07;;;8.53;;
8285;SDS011;4181;43.416;24.598;2023-05-10T03:47:16;9.73;;;7.90;;
8285;SDS011;4181;43.416;24.598;2023-05-10T03:49:42;13.57;;;9.17;;
8285;SDS011;4181;43.416;24.598;2023-05-10T03:52:08;15.30;;;8.90;;
8285;SDS011;4181;43.416;24.598;2023-05-10T03:54:33;10.07;;;7.97;;
8285;SDS011;4181;43.416;24.598;2023-05-10T03:56:58;10.00;;;7.93;;
8285;SDS011;4181;43.416;24.598;2023-05-10T03:59:25;11.30;;;8.13;;
8285;SDS011;4181;43.416;24.598;2023-05-10T04:01:50;10.13;;;8.27;;
8285;SDS011;4181;43.416;24.598;2023-05-10T04:04:16;9.37;;;7.13;;
8285;SDS011;4181;43.416;24.598;2023-05-10T04:06:43;8.87;;;7.73;;
8285;SDS011;4181;43.416;24.598;2023-05-10T04:09:09;11.50;;;8.20;;
8285;SDS011;4181;43.416;24.598;2023-05-10T04:11:34;8.40;;;7.47;;
8285;SDS011;4181;43.416;24.598;2023-05-10T04:14:00;8.17;;;7.03;;
8285;SDS011;4181;43.416;24.598;2023-05-10T04:16:25;12.40;;;7.07;;
8285;SDS011;4181;43.416;24.598;2023-05-10T04:18:50;12.13;;;8.27;;
8285;SDS011;4181;43.416;24.598;2023-05-10T04:21:16;10.73;;;7.47;;
8285;SDS011;4181;43.416;24.598;2023-05-10T04:23:41;10.80;;;8.07;;
8285;SDS011;4181;43.416;24.598;2023-05-10T04:26:07;12.80;;;7.57;;
8285;SDS011;4181;43.416;24.598;2023-05-10T04:28:32;13.00;;;7.40;;
8285;SDS011;4181;43.416;24.598;2023-05-10T04:31:01;12.53;;;8.57;;
8285;SDS011;4181;43.416;24.598;2023-05-10T04:33:27;9.13;;;7.70;;
8285;SDS011;4181;43.416;24.598;2023-05-10T04:35:52;11.70;;;7.27;;
8285;SDS011;4181;43.416;24.598;2023-05-10T04:38:18;15.03;;;8.33;;
8285;SDS011;4181;43.416;24.598;2023-05-10T04:40:43;12.27;;;7.33;;
8285;SDS011;4181;43.416;24.598;2023-05-10T04:43:08;10.30;;;7.03;;
8285;SDS011;4181;43.416;24.598;2023-05-10T04:45:34;9.07;;;7.47;;
8285;SDS011;4181;43.416;24.598;2023-05-10T04:47:59;9.50;;;6.60;;
8285;SDS011;4181;43.416;24.598;2023-05-10T04:50:25;8.93;;;6.73;;
8285;SDS011;4181;43.416;24.598;2023-05-10T04:52:50;8.67;;;6.33;;
8285;SDS011;4181;43.416;24.598;2023-05-10T04:55:15;12.57;;;6.83;;
8285;SDS011;4181;43.416;24.598;2023-05-10T04:57:41;11.20;;;6.90;;
8285;SDS011;4181;43.416;24.598;2023-05-10T05:00:06;9.73;;;6.77;;
8285;SDS011;4181;43.416;24.598;2023-05-10T05:02:32;10.93;;;7.30;;
8285;SDS011;4181;43.416;24.598;2023-05-10T05:04:57;9.10;;;7.50;;
8285;SDS011;4181;43.416;24.598;2023-05-10T05:07:23;18.00;;;8.17;;
8285;SDS011;4181;43.416;24.598;2023-05-10T05:09:48;12.87;;;7.80;;
8285;SDS011;4181;43.416;24.598;2023-05-10T05:12:14;11.30;;;6.57;;
8285;SDS011;4181;43.416;24.598;2023-05-10T05:14:39;11.00;;;6.17;;
8285;SDS011;4181;43.416;24.598;2023-05-10T05:17:06;13.73;;;7.17;;
8285;SDS011;4181;43.416;24.598;2023-05-10T05:19:32;8.43;;;7.27;;
8285;SDS011;4181;43.416;24.598;2023-05-10T05:21:57;10.13;;;7.37;;
8285;SDS011;4181;43.416;24.598;2023-05-10T05:24:22;10.40;;;7.57;;
8285;SDS011;4181;43.416;24.598;2023-05-10T05:26:48;8.83;;;5.83;;
8285;SDS011;4181;43.416;24.598;2023-05-10T05:29:13;12.53;;;7.23;;
8285;SDS011;4181;43.416;24.598;2023-05-10T05:31:39;12.93;;;7.07;;
8285;SDS011;4181;43.416;24.598;2023-05-10T05:34:04;10.83;;;7.70;;
8285;SDS011;4181;43.416;24.598;2023-05-10T05:36:30;6.70;;;5.70;;
8285;SDS011;4181;43.416;24.598;2023-05-10T05:38:56;9.40;;;6.63;;
8285;SDS011;4181;43.416;24.598;2023-05-10T05:41:22;9.10;;;6.37;;
8285;SDS011;4181;43.416;24.598;2023-05-10T05:43:48;6.97;;;6.00;;
8285;SDS011;4181;43.416;24.598;2023-05-10T05:46:14;7.53;;;6.70;;
8285;SDS011;4181;43.416;24.598;2023-05-10T05:48:40;7.83;;;6.43;;
8285;SDS011;4181;43.416;24.598;2023-05-10T05:51:05;7.90;;;6.20;;
8285;SDS011;4181;43.416;24.598;2023-05-10T05:53:31;9.97;;;6.70;;
8285;SDS011;4181;43.416;24.598;2023-05-10T05:55:57;10.27;;;6.50;;
8285;SDS011;4181;43.416;24.598;2023-05-10T05:58:23;10.03;;;6.40;;
8285;SDS011;4181;43.416;24.598;2023-05-10T06:00:50;8.63;;;6.70;;
8285;SDS011;4181;43.416;24.598;2023-05-10T06:03:17;6.23;;;5.17;;
8285;SDS011;4181;43.416;24.598;2023-05-10T06:05:42;8.20;;;5.53;;
8285;SDS011;4181;43.416;24.598;2023-05-10T06:08:08;10.77;;;6.30;;
8285;SDS011;4181;43.416;24.598;2023-05-10T06:10:33;7.30;;;5.77;;
8285;SDS011;4181;43.416;24.598;2023-05-10T06:12:58;13.97;;;6.17;;
8285;SDS011;4181;43.416;24.598;2023-05-10T06:15:24;8.40;;;5.83;;
8285;SDS011;4181;43.416;24.598;2023-05-10T06:17:50;11.00;;;6.03;;
8285;SDS011;4181;43.416;24.598;2023-05-10T06:20:15;6.30;;;5.03;;
8285;SDS011;4181;43.416;24.598;2023-05-10T06:22:41;6.97;;;5.20;;
8285;SDS011;4181;43.416;24.598;2023-05-10T06:25:07;8.87;;;5.10;;
8285;SDS011;4181;43.416;24.598;2023-05-10T06:27:33;6.60;;;4.83;;
8285;SDS011;4181;43.416;24.598;2023-05-10T06:29:59;5.60;;;5.00;;
8285;SDS011;4181;43.416;24.598;2023-05-10T06:32:24;6.73;;;4.90;;
8285;SDS011;4181;43.416;24.598;2023-05-10T06:34:50;8.57;;;4.90;;
8285;SDS011;4181;43.416;24.598;2023-05-10T06:37:16;8.37;;;4.67;;
8285;SDS011;4181;43.416;24.598;2023-05-10T06:39:41;11.07;;;4.20;;
8285;SDS011;4181;43.416;24.598;2023-05-10T06:42:07;12.10;;;4.83;;
8285;SDS011;4181;43.416;24.598;2023-05-10T06:44:32;5.93;;;4.47;;
8285;SDS011;4181;43.416;24.598;2023-05-10T06:46:58;6.87;;;4.60;;
8285;SDS011;4181;43.416;24.598;2023-05-10T06:49:23;10.17;;;4.27;;
8285;SDS011;4181;43.416;24.598;2023-05-10T06:51:49;4.70;;;3.63;;
8285;SDS011;4181;43.416;24.598;2023-05-10T06:54:14;8.10;;;4.30;;
8285;SDS011;4181;43.416;24.598;2023-05-10T06:56:39;6.67;;;4.60;;
8285;SDS011;4181;43.416;24.598;2023-05-10T06:59:05;6.67;;;4.20;;
8285;SDS011;4181;43.416;24.598;2023-05-10T07:01:31;8.20;;;4.37;;
8285;SDS011;4181;43.416;24.598;2023-05-10T07:03:57;11.13;;;4.83;;
8285;SDS011;4181;43.416;24.598;2023-05-10T07:06:22;9.90;;;4.03;;
8285;SDS011;4181;43.416;24.598;2023-05-10T07:08:47;6.43;;;3.60;;
8285;SDS011;4181;43.416;24.598;2023-05-10T07:11:13;4.80;;;3.97;;
8285;SDS011;4181;43.416;24.598;2023-05-10T07:13:38;6.13;;;3.93;;
8285;SDS011;4181;43.416;24.598;2023-05-10T07:16:06;6.27;;;4.43;;
8285;SDS011;4181;43.416;24.598;2023-05-10T07:18:32;7.33;;;4.30;;
8285;SDS011;4181;43.416;24.598;2023-05-10T07:20:58;8.37;;;3.67;;
8285;SDS011;4181;43.416;24.598;2023-05-10T07:23:24;6.93;;;4.40;;
8285;SDS011;4181;43.416;24.598;2023-05-10T07:25:50;8.47;;;4.20;;
8285;SDS011;4181;43.416;24.598;2023-05-10T07:28:19;8.60;;;4.50;;
8285;SDS011;4181;43.416;24.598;2023-05-10T07:30:45;5.17;;;3.53;;
8285;SDS011;4181;43.416;24.598;2023-05-10T07:33:12;5.57;;;3.90;;
8285;SDS011;4181;43.416;24.598;2023-05-10T07:35:38;6.27;;;3.93;;
8285;SDS011;4181;43.416;24.598;2023-05-10T07:38:04;6.87;;;3.53;;
8285;SDS011;4181;43.416;24.598;2023-05-10T07:40:29;4.83;;;3.47;;
8285;SDS011;4181;43.416;24.598;2023-05-10T07:42:55;11.20;;;3.97;;
8285;SDS011;4181;43.416;24.598;2023-05-10T07:45:21;3.80;;;3.50;;
8285;SDS011;4181;43.416;24.598;2023-05-10T07:47:46;9.67;;;3.90;;
8285;SDS011;4181;43.416;24.598;2023-05-10T07:50:12;5.03;;;3.97;;
8285;SDS011;4181;43.416;24.598;2023-05-10T07:52:39;6.87;;;4.37;;
8285;SDS011;4181;43.416;24.598;2023-05-10T07:55:04;5.23;;;3.63;;
8285;SDS011;4181;43.416;24.598;2023-05-10T07:57:30;7.27;;;3.57;;
8285;SDS011;4181;43.416;24.598;2023-05-10T07:59:56;4.93;;;4.00;;
8285;SDS011;4181;43.416;24.598;2023-05-10T08:02:21;4.70;;;3.67;;
8285;SDS011;4181;43.416;24.598;2023-05-10T08:04:46;5.00;;;4.30;;
8285;SDS011;4181;43.416;24.598;2023-05-10T08:07:12;5.20;;;4.33;;
8285;SDS011;4181;43.416;24.598;2023-05-10T08:09:37;5.47;;;3.50;;
8285;SDS011;4181;43.416;24.598;2023-05-10T08:12:03;6.70;;;4.27;;
8285;SDS011;4181;43.416;24.598;2023-05-10T08:14:28;5.33;;;3.60;;
8285;SDS011;4181;43.416;24.598;2023-05-10T08:16:54;4.20;;;3.80;;
8285;SDS011;4181;43.416;24.598;2023-05-10T08:19:21;5.77;;;3.70;;
8285;SDS011;4181;43.416;24.598;2023-05-10T08:21:47;5.63;;;3.40;;
8285;SDS011;4181;43.416;24.598;2023-05-10T08:24:13;6.27;;;3.67;;
8285;SDS011;4181;43.416;24.598;2023-05-10T08:26:38;5.13;;;3.40;;
8285;SDS011;4181;43.416;24.598;2023-05-10T08:29:04;4.60;;;3.70;;
8285;SDS011;4181;43.416;24.598;2023-05-10T08:31:29;5.03;;;3.53;;
8285;SDS011;4181;43.416;24.598;2023-05-10T08:33:55;2.83;;;2.53;;
8285;SDS011;4181;43.416;24.598;2023-05-10T08:36:20;6.67;;;3.57;;
8285;SDS011;4181;43.416;24.598;2023-05-10T08:38:51;6.33;;;3.40;;
8285;SDS011;4181;43.416;24.598;2023-05-10T08:41:22;4.23;;;3.20;;
8285;SDS011;4181;43.416;24.598;2023-05-10T08:43:53;5.00;;;3.20;;
8285;SDS011;4181;43.416;24.598;2023-05-10T08:46:20;5.80;;;3.13;;
8285;SDS011;4181;43.416;24.598;2023-05-10T08:48:47;3.93;;;3.00;;
8285;SDS011;4181;43.416;24.598;2023-05-10T08:51:15;3.87;;;3.17;;
8285;SDS011;4181;43.416;24.598;2023-05-10T08:53:44;3.70;;;2.83;;
8285;SDS011;4181;43.416;24.598;2023-05-10T08:56:10;5.97;;;3.50;;
8285;SDS011;4181;43.416;24.598;2023-05-10T08:58:36;6.60;;;2.97;;
8285;SDS011;4181;43.416;24.598;2023-05-10T09:01:03;9.57;;;3.60;;
8285;SDS011;4181;43.416;24.598;2023-05-10T09:03:29;4.13;;;3.30;;
8285;SDS011;4181;43.416;24.598;2023-05-10T09:05:55;3.00;;;2.70;;
8285;SDS011;4181;43.416;24.598;2023-05-10T09:08:23;7.07;;;2.53;;
8285;SDS011;4181;43.416;24.598;2023-05-10T09:10:53;8.00;;;3.17;;
8285;SDS011;4181;43.416;24.598;2023-05-10T09:13:21;5.70;;;3.10;;
8285;SDS011;4181;43.416;24.598;2023-05-10T09:15:48;3.90;;;2.70;;
8285;SDS011;4181;43.416;24.598;2023-05-10T09:18:14;3.43;;;2.73;;
8285;SDS011;4181;43.416;24.598;2023-05-10T09:20:40;5.23;;;3.10;;
8285;SDS011;4181;43.416;24.598;2023-05-10T09:23:06;7.83;;;3.17;;
8285;SDS011;4181;43.416;24.598;2023-05-10T09:25:32;6.10;;;2.90;;
8285;SDS011;4181;43.416;24.598;2023-05-10T09:28:02;2.80;;;2.47;;
8285;SDS011;4181;43.416;24.598;2023-05-10T09:30:31;5.13;;;2.80;;
8285;SDS011;4181;43.416;24.598;2023-05-10T09:32:57;5.87;;;3.00;;
8285;SDS011;4181;43.416;24.598;2023-05-10T09:35:25;5.07;;;3.13;;
8285;SDS011;4181;43.416;24.598;2023-05-10T09:37:52;6.50;;;2.77;;
8285;SDS011;4181;43.416;24.598;2023-05-10T09:40:22;4.10;;;3.07;;
8285;SDS011;4181;43.416;24.598;2023-05-10T09:42:56;6.17;;;2.97;;
8285;SDS011;4181;43.416;24.598;2023-05-10T09:45:22;5.97;;;3.03;;
8285;SDS011;4181;43.416;24.598;2023-05-10T09:47:49;6.87;;;2.77;;
8285;SDS011;4181;43.416;24.598;2023-05-10T09:50:14;3.23;;;2.80;;
8285;SDS011;4181;43.416;24.598;2023-05-10T09:55:24;3.10;;;2.73;;
8285;SDS011;4181;43.416;24.598;2023-05-10T09:58:00;5.03;;;2.60;;
8285;SDS011;4181;43.416;24.598;2023-05-10T10:00:27;3.30;;;2.73;;
8285;SDS011;4181;43.416;24.598;2023-05-10T10:02:57;4.77;;;2.43;;
8285;SDS011;4181;43.416;24.598;2023-05-10T10:05:33;5.17;;;2.70;;
8285;SDS011;4181;43.416;24.598;2023-05-10T10:08:01;3.17;;;2.87;;
8285;SDS011;4181;43.416;24.598;2023-05-10T10:10:28;4.03;;;2.50;;
8285;SDS011;4181;43.416;24.598;2023-05-10T10:12:54;5.37;;;3.10;;
8285;SDS011;4181;43.416;24.598;2023-05-10T10:15:21;2.70;;;2.00;;
8285;SDS011;4181;43.416;24.598;2023-05-10T10:17:48;5.70;;;2.90;;
8285;SDS011;4181;43.416;24.598;2023-05-10T10:20:14;3.50;;;2.67;;
8285;SDS011;4181;43.416;24.598;2023-05-10T10:22:40;3.43;;;2.50;;
8285;SDS011;4181;43.416;24.598;2023-05-10T10:25:07;5.07;;;2.60;;
8285;SDS011;4181;43.416;24.598;2023-05-10T10:36:00;4.33;;;2.77;;
8285;SDS011;4181;43.416;24.598;2023-05-10T10:41:29;3.93;;;2.73;;
8285;SDS011;4181;43.416;24.598;2023-05-10T10:47:00;3.27;;;2.40;;
8285;SDS011;4181;43.416;24.598;2023-05-10T10:57:25;2.23;;;2.10;;
8285;SDS011;4181;43.416;24.598;2023-05-10T10:59:51;2.70;;;2.30;;
8285;SDS011;4181;43.416;24.598;2023-05-10T11:07:58;3.77;;;2.23;;
8285;SDS011;4181;43.416;24.598;2023-05-10T11:10:25;2.77;;;2.13;;
8285;SDS011;4181;43.416;24.598;2023-05-10T11:15:40;2.47;;;2.20;;
8285;SDS011;4181;43.416;24.598;2023-05-10T11:18:47;4.23;;;2.13;;
8285;SDS011;4181;43.416;24.598;2023-05-10T11:21:05;2.77;;;2.33;;
8285;SDS011;4181;43.416;24.598;2023-05-10T11:26:06;3.70;;;2.40;;
8285;SDS011;4181;43.416;24.598;2023-05-10T11:28:34;4.03;;;2.43;;
8285;SDS011;4181;43.416;24.598;2023-05-10T11:31:06;4.47;;;2.23;;
8285;SDS011;4181;43.416;24.598;2023-05-10T11:33:31;4.23;;;2.27;;
8285;SDS011;4181;43.416;24.598;2023-05-10T11:36:10;2.10;;;1.97;;
8285;SDS011;4181;43.416;24.598;2023-05-10T11:38:42;4.53;;;2.20;;
8285;SDS011;4181;43.416;24.598;2023-05-10T11:41:09;3.07;;;2.10;;
8285;SDS011;4181;43.416;24.598;2023-05-10T11:43:40;3.47;;;2.07;;
8285;SDS011;4181;43.416;24.598;2023-05-10T11:46:10;2.13;;;1.93;;
8285;SDS011;4181;43.416;24.598;2023-05-10T11:48:41;5.27;;;2.50;;
8285;SDS011;4181;43.416;24.598;2023-05-10T11:51:07;3.10;;;2.27;;
8285;SDS011;4181;43.416;24.598;2023-05-10T11:53:33;4.43;;;2.13;;
8285;SDS011;4181;43.416;24.598;2023-05-10T11:56:02;4.73;;;2.10;;
8285;SDS011;4181;43.416;24.598;2023-05-10T11:58:30;3.63;;;2.10;;
8285;SDS011;4181;43.416;24.598;2023-05-10T12:00:55;2.10;;;1.90;;
8285;SDS011;4181;43.416;24.598;2023-05-10T12:03:21;6.17;;;2.70;;
8285;SDS011;4181;43.416;24.598;2023-05-10T12:05:47;3.87;;;2.30;;
8285;SDS011;4181;43.416;24.598;2023-05-10T12:08:13;3.27;;;1.70;;
8285;SDS011;4181;43.416;24.598;2023-05-10T12:10:40;2.43;;;1.90;;
8285;SDS011;4181;43.416;24.598;2023-05-10T12:13:10;3.43;;;2.00;;
8285;SDS011;4181;43.416;24.598;2023-05-10T12:15:37;2.47;;;2.10;;
8285;SDS011;4181;43.416;24.598;2023-05-10T12:18:02;2.20;;;2.00;;
8285;SDS011;4181;43.416;24.598;2023-05-10T12:20:28;3.03;;;2.20;;
8285;SDS011;4181;43.416;24.598;2023-05-10T12:22:54;4.53;;;2.37;;
8285;SDS011;4181;43.416;24.598;2023-05-10T12:25:23;2.07;;;1.90;;
8285;SDS011;4181;43.416;24.598;2023-05-10T12:30:22;3.27;;;2.20;;
8285;SDS011;4181;43.416;24.598;2023-05-10T12:32:49;2.43;;;2.10;;
8285;SDS011;4181;43.416;24.598;2023-05-10T12:35:15;5.13;;;2.27;;
8285;SDS011;4181;43.416;24.598;2023-05-10T12:37:42;4.30;;;3.43;;
8285;SDS011;4181;43.416;24.598;2023-05-10T12:40:08;4.87;;;3.27;;
8285;SDS011;4181;43.416;24.598;2023-05-10T12:42:36;2.40;;;2.00;;
8285;SDS011;4181;43.416;24.598;2023-05-10T12:45:03;5.90;;;2.27;;
8285;SDS011;4181;43.416;24.598;2023-05-10T12:47:29;2.17;;;1.97;;
8285;SDS011;4181;43.416;24.598;2023-05-10T12:49:55;5.47;;;2.00;;
8285;SDS011;4181;43.416;24.598;2023-05-10T12:52:21;5.10;;;1.83;;
8285;SDS011;4181;43.416;24.598;2023-05-10T12:54:46;3.40;;;2.07;;
8285;SDS011;4181;43.416;24.598;2023-05-10T12:57:12;3.43;;;2.27;;
8285;SDS011;4181;43.416;24.598;2023-05-10T12:59:38;2.70;;;2.30;;
8285;SDS011;4181;43.416;24.598;2023-05-10T13:02:04;2.23;;;2.03;;
8285;SDS011;4181;43.416;24.598;2023-05-10T13:04:30;4.73;;;1.97;;
8285;SDS011;4181;43.416;24.598;2023-05-10T13:06:55;6.57;;;2.10;;
8285;SDS011;4181;43.416;24.598;2023-05-10T13:09:27;2.90;;;2.10;;
8285;SDS011;4181;43.416;24.598;2023-05-10T13:11:55;4.07;;;2.23;;
8285;SDS011;4181;43.416;24.598;2023-05-10T13:14:21;2.13;;;1.80;;
8285;SDS011;4181;43.416;24.598;2023-05-10T13:16:46;3.93;;;2.40;;
8285;SDS011;4181;43.416;24.598;2023-05-10T13:19:12;9.23;;;2.27;;
8285;SDS011;4181;43.416;24.598;2023-05-10T13:21:38;7.97;;;2.00;;
8285;SDS011;4181;43.416;24.598;2023-05-10T13:24:05;2.43;;;2.00;;
8285;SDS011;4181;43.416;24.598;2023-05-10T13:26:31;2.17;;;1.97;;
8285;SDS011;4181;43.416;24.598;2023-05-10T13:28:57;2.37;;;2.13;;
8285;SDS011;4181;43.416;24.598;2023-05-10T13:31:22;2.47;;;2.17;;
8285;SDS011;4181;43.416;24.598;2023-05-10T13:33:48;3.90;;;2.60;;
8285;SDS011;4181;43.416;24.598;2023-05-10T13:36:13;3.77;;;2.20;;
8285;SDS011;4181;43.416;24.598;2023-05-10T13:38:39;5.77;;;2.10;;
8285;SDS011;4181;43.416;24.598;2023-05-10T13:41:04;2.30;;;2.10;;
8285;SDS011;4181;43.416;24.598;2023-05-10T13:43:30;5.67;;;2.50;;
8285;SDS011;4181;43.416;24.598;2023-05-10T13:45:55;3.23;;;2.03;;
8285;SDS011;4181;43.416;24.598;2023-05-10T13:48:21;3.33;;;2.17;;
8285;SDS011;4181;43.416;24.598;2023-05-10T13:50:47;5.33;;;2.10;;
8285;SDS011;4181;43.416;24.598;2023-05-10T13:53:12;2.73;;;2.10;;
8285;SDS011;4181;43.416;24.598;2023-05-10T13:58:59;3.53;;;2.30;;
8285;SDS011;4181;43.416;24.598;2023-05-10T14:01:25;6.97;;;2.30;;
8285;SDS011;4181;43.416;24.598;2023-05-10T14:03:51;4.57;;;2.10;;
8285;SDS011;4181;43.416;24.598;2023-05-10T14:06:16;4.63;;;2.40;;
8285;SDS011;4181;43.416;24.598;2023-05-10T14:08:42;2.53;;;2.20;;
8285;SDS011;4181;43.416;24.598;2023-05-10T14:11:08;5.40;;;2.60;;
8285;SDS011;4181;43.416;24.598;2023-05-10T14:13:34;3.17;;;2.47;;
8285;SDS011;4181;43.416;24.598;2023-05-10T14:15:59;2.77;;;2.43;;
8285;SDS011;4181;43.416;24.598;2023-05-10T14:18:26;2.73;;;2.23;;
8285;SDS011;4181;43.416;24.598;2023-05-10T14:20:52;3.20;;;2.13;;
8285;SDS011;4181;43.416;24.598;2023-05-10T14:23:17;5.90;;;2.50;;
8285;SDS011;4181;43.416;24.598;2023-05-10T14:25:45;10.10;;;4.57;;
8285;SDS011;4181;43.416;24.598;2023-05-10T14:28:10;3.17;;;2.87;;
8285;SDS011;4181;43.416;24.598;2023-05-10T14:30:37;2.80;;;2.60;;
8285;SDS011;4181;43.416;24.598;2023-05-10T14:33:02;4.63;;;2.10;;
8285;SDS011;4181;43.416;24.598;2023-05-10T14:35:28;2.87;;;2.60;;
8285;SDS011;4181;43.416;24.598;2023-05-10T14:37:56;5.93;;;2.30;;
8285;SDS011;4181;43.416;24.598;2023-05-10T14:40:21;7.33;;;2.60;;
8285;SDS011;4181;43.416;24.598;2023-05-10T14:42:47;3.33;;;3.00;;
8285;SDS011;4181;43.416;24.598;2023-05-10T14:45:13;3.20;;;2.33;;
8285;SDS011;4181;43.416;24.598;2023-05-10T14:47:38;6.23;;;2.50;;
8285;SDS011;4181;43.416;24.598;2023-05-10T14:50:04;2.53;;;2.30;;
8285;SDS011;4181;43.416;24.598;2023-05-10T14:55:51;5.50;;;3.70;;
8285;SDS011;4181;43.416;24.598;2023-05-10T14:58:17;2.50;;;2.30;;
8285;SDS011;4181;43.416;24.598;2023-05-10T15:00:42;2.93;;;2.53;;
8285;SDS011;4181;43.416;24.598;2023-05-10T15:03:08;5.83;;;2.40;;
8285;SDS011;4181;43.416;24.598;2023-05-10T15:05:34;4.97;;;3.63;;
8285;SDS011;4181;43.416;24.598;2023-05-10T15:07:59;2.70;;;2.50;;
8285;SDS011;4181;43.416;24.598;2023-05-10T15:10:25;4.70;;;3.17;;
8285;SDS011;4181;43.416;24.598;2023-05-10T15:12:50;2.73;;;2.40;;
8285;SDS011;4181;43.416;24.598;2023-05-10T15:15:15;4.00;;;3.47;;
8285;SDS011;4181;43.416;24.598;2023-05-10T15:17:41;2.80;;;2.50;;
8285;SDS011;4181;43.416;24.598;2023-05-10T15:20:07;5.90;;;2.40;;
8285;SDS011;4181;43.416;24.598;2023-05-10T15:22:32;5.87;;;2.30;;
8285;SDS011;4181;43.416;24.598;2023-05-10T15:24:58;3.53;;;2.53;;
8285;SDS011;4181;43.416;24.598;2023-05-10T15:27:24;2.53;;;2.20;;
8285;SDS011;4181;43.416;24.598;2023-05-10T15:29:50;3.60;;;3.30;;
8285;SDS011;4181;43.416;24.598;2023-05-10T15:32:15;16.03;;;10.63;;
8285;SDS011;4181;43.416;24.598;2023-05-10T15:34:41;9.10;;;5.40;;
8285;SDS011;4181;43.416;24.598;2023-05-10T15:37:06;3.93;;;2.80;;
8285;SDS011;4181;43.416;24.598;2023-05-10T15:39:32;2.97;;;2.27;;
8285;SDS011;4181;43.416;24.598;2023-05-10T15:41:57;4.10;;;3.10;;
8285;SDS011;4181;43.416;24.598;2023-05-10T15:44:23;7.47;;;2.87;;
8285;SDS011;4181;43.416;24.598;2023-05-10T15:46:49;5.43;;;2.60;;
8285;SDS011;4181;43.416;24.598;2023-05-10T15:49:14;2.70;;;2.43;;
8285;SDS011;4181;43.416;24.598;2023-05-10T15:51:40;4.07;;;2.70;;
8285;SDS011;4181;43.416;24.598;2023-05-10T15:54:05;2.23;;;2.03;;
8285;SDS011;4181;43.416;24.598;2023-05-10T15:56:31;2.80;;;2.20;;
8285;SDS011;4181;43.416;24.598;2023-05-10T15:58:58;3.13;;;2.40;;
8285;SDS011;4181;43.416;24.598;2023-05-10T16:01:23;5.20;;;2.90;;
8285;SDS011;4181;43.416;24.598;2023-05-10T16:03:49;3.67;;;2.13;;
8285;SDS011;4181;43.416;24.598;2023-05-10T16:06:14;3.30;;;3.00;;